createdAt,value
2019-01-14T00:00:35.015Z,95124.94
2019-01-14T00:03:41.955Z,95124.73
2019-01-14T00:06:48.984Z,95128.52
2019-01-14T00:09:55.914Z,95130.84
2019-01-14T00:13:04.712Z,95128.58
2019-01-14T00:16:11.870Z,95130.98
2019-01-14T00:19:19.510Z,95127.94
2019-01-14T00:22:26.603Z,95139.02
2019-01-14T00:25:33.672Z,95144.49
2019-01-14T00:28:43.993Z,95146.34
2019-01-14T00:31:51.245Z,95152.17
2019-01-14T00:34:58.268Z,95143.88
2019-01-14T00:38:05.812Z,95154.70
2019-01-14T00:41:15.784Z,95157.28
2019-01-14T00:44:22.795Z,95157.52
2019-01-14T00:47:29.727Z,95168.08
2019-01-14T00:50:36.694Z,95174.27
2019-01-14T00:53:43.633Z,95177.94
2019-01-14T00:56:50.856Z,95177.88
2019-01-14T00:59:57.789Z,95178.84
2019-01-14T01:03:05.162Z,95182.44
2019-01-14T01:06:12.091Z,95185.58
2019-01-14T01:09:22.131Z,95195.02
2019-01-14T01:12:29.134Z,95199.45
2019-01-14T01:15:36.717Z,95191.37
2019-01-14T01:18:43.635Z,95204.15
2019-01-14T01:21:50.585Z,95213.05
2019-01-14T01:24:57.677Z,95227.02
2019-01-14T01:28:04.633Z,95243.88
2019-01-14T01:31:11.550Z,95248.75
2019-01-14T01:34:20.289Z,95249.95
2019-01-14T01:37:27.303Z,95258.68
2019-01-14T01:40:34.293Z,95261.14
2019-01-14T01:43:41.234Z,95275.23
2019-01-14T01:46:48.183Z,95293.08
2019-01-14T01:49:56.081Z,95311.25
2019-01-14T01:53:03.371Z,95312.20
2019-01-14T01:56:10.337Z,95313.67
2019-01-14T01:59:17.278Z,95314.32
2019-01-14T02:02:26.914Z,95322.83
2019-01-14T02:05:33.907Z,95329.67
2019-01-14T02:08:40.842Z,95332.03
2019-01-14T02:11:47.949Z,95337.22
2019-01-14T02:14:54.996Z,95339.20
2019-01-14T02:18:04.595Z,95360.36
2019-01-14T02:21:11.555Z,95362.41
2019-01-14T02:24:18.509Z,95363.73
2019-01-14T02:27:27.693Z,95367.66
2019-01-14T02:30:34.653Z,95381.52
2019-01-14T02:33:41.576Z,95389.28
2019-01-14T02:36:48.823Z,95383.51
2019-01-14T02:39:55.760Z,95393.55
2019-01-14T02:43:02.724Z,95396.20
2019-01-14T02:46:10.652Z,95405.25
2019-01-14T02:49:17.596Z,95416.67
2019-01-14T02:52:27.265Z,95410.44
2019-01-14T02:55:34.225Z,95418.09
2019-01-14T02:58:41.184Z,95418.98
2019-01-14T03:01:48.670Z,95421.73
2019-01-14T03:04:55.682Z,95423.49
2019-01-14T03:08:02.652Z,95431.14
2019-01-14T03:11:09.582Z,95443.25
2019-01-14T03:14:16.561Z,95459.69
2019-01-14T03:17:26.649Z,95466.45
2019-01-14T03:20:36.469Z,95463.55
2019-01-14T03:23:43.409Z,95474.65
2019-01-14T03:26:50.379Z,95495.02
2019-01-14T03:29:58.697Z,95502.04
2019-01-14T03:33:05.733Z,95507.78
2019-01-14T03:36:12.713Z,95515.95
2019-01-14T03:39:19.688Z,95520.70
2019-01-14T03:42:26.628Z,95533.56
2019-01-14T03:45:36.650Z,95536.36
2019-01-14T03:48:43.571Z,95545.89
2019-01-14T03:51:50.535Z,95552.91
2019-01-14T03:54:57.473Z,95562.23
2019-01-14T03:58:04.859Z,95563.25
2019-01-14T04:01:11.791Z,95576.00
2019-01-14T04:04:22.138Z,95584.80
2019-01-14T04:07:32.572Z,95591.69
2019-01-14T04:10:39.516Z,95605.70
2019-01-14T04:13:46.429Z,95616.52
2019-01-14T04:16:53.409Z,95626.64
2019-01-14T04:20:00.370Z,95635.42
2019-01-14T04:23:07.583Z,95643.80
2019-01-14T04:26:17.788Z,95645.16
2019-01-14T04:29:24.797Z,95652.75
2019-01-14T04:32:34.905Z,95667.69
2019-01-14T04:35:41.881Z,95676.18
2019-01-14T04:38:49.097Z,95689.70
2019-01-14T04:41:56.095Z,95690.97
2019-01-14T04:45:03.021Z,95703.72
2019-01-14T04:48:09.979Z,95695.89
2019-01-14T04:51:16.895Z,95704.00
2019-01-14T04:54:27.044Z,95707.70
2019-01-14T04:57:34.042Z,95699.88
2019-01-14T05:00:41.448Z,95715.56
2019-01-14T05:03:48.371Z,95725.77
2019-01-14T05:06:55.340Z,95734.28
2019-01-14T05:10:02.263Z,95744.81
2019-01-14T05:13:09.341Z,95750.01
2019-01-14T05:16:19.478Z,95753.00
2019-01-14T05:19:27.030Z,95760.63
2019-01-14T05:22:33.985Z,95768.07
2019-01-14T05:25:44.112Z,95773.30
2019-01-14T05:28:51.066Z,95764.93
2019-01-14T05:31:58.121Z,95803.72
2019-01-14T05:35:05.946Z,95798.00
2019-01-14T05:38:12.906Z,95815.44
2019-01-14T05:41:19.825Z,95811.81
2019-01-14T05:44:26.792Z,95823.31
2019-01-14T05:47:33.803Z,95833.92
2019-01-14T05:50:43.083Z,95847.68
2019-01-14T05:53:54.735Z,95838.92
2019-01-14T05:57:01.700Z,95835.03
2019-01-14T06:00:18.083Z,95847.77
2019-01-14T06:03:25.061Z,95848.47
2019-01-14T06:06:31.981Z,95854.40
2019-01-14T06:09:39.616Z,95843.99
2019-01-14T06:12:49.594Z,95847.13
2019-01-14T06:15:56.560Z,95855.58
2019-01-14T06:19:03.457Z,95853.09
2019-01-14T06:22:10.420Z,95865.47
2019-01-14T06:25:17.592Z,95867.77
2019-01-14T06:28:24.994Z,95867.80
2019-01-14T06:31:31.907Z,95862.09
2019-01-14T06:34:39.348Z,95877.37
2019-01-14T06:37:52.347Z,95886.13
2019-01-14T06:40:55.030Z,95877.61
2019-01-14T06:44:02.951Z,95887.59
2019-01-14T06:47:09.910Z,95886.09
2019-01-14T06:50:19.071Z,95893.27
2019-01-14T06:53:26.036Z,95902.07
2019-01-14T06:56:33.001Z,95909.67
2019-01-14T06:59:41.053Z,95906.80
2019-01-14T07:02:48.503Z,95911.92
2019-01-14T07:05:55.512Z,95921.28
2019-01-14T07:09:02.723Z,95927.09
2019-01-14T07:12:09.688Z,95930.50
2019-01-14T07:15:16.595Z,95936.84
2019-01-14T07:18:23.554Z,95933.92
2019-01-14T07:21:30.475Z,95946.13
2019-01-14T07:24:38.306Z,95945.25
2019-01-14T07:27:47.001Z,95947.73
2019-01-14T07:30:54.507Z,95945.39
2019-01-14T07:34:01.458Z,95959.68
2019-01-14T07:37:09.204Z,95962.14
2019-01-14T07:40:16.813Z,95963.44
2019-01-14T07:43:23.769Z,95965.92
2019-01-14T07:46:30.693Z,95972.66
2019-01-14T07:49:37.943Z,95973.04
2019-01-14T07:52:48.414Z,95980.09
2019-01-14T07:55:55.499Z,95982.19
2019-01-14T07:59:02.611Z,95987.27
2019-01-14T08:02:09.581Z,95990.05
2019-01-14T08:05:16.500Z,95994.19
2019-01-14T08:08:24.070Z,95995.88
2019-01-14T08:11:31.002Z,95989.63
2019-01-14T08:14:37.956Z,95995.03
2019-01-14T08:17:45.277Z,95993.77
2019-01-14T08:20:52.466Z,96007.94
2019-01-14T08:24:01.015Z,96010.22
2019-01-14T08:27:07.995Z,96021.09
2019-01-14T08:30:20.934Z,96024.56
2019-01-14T08:33:28.602Z,96025.95
2019-01-14T08:36:35.528Z,96036.16
2019-01-14T08:39:42.512Z,96045.15
2019-01-14T08:42:51.086Z,96037.61
2019-01-14T08:45:59.510Z,96045.56
2019-01-14T08:49:06.484Z,96046.41
2019-01-14T08:52:13.512Z,96047.28
2019-01-14T08:55:20.592Z,96030.42
2019-01-14T08:58:27.690Z,96032.98
2019-01-14T09:01:34.614Z,96036.34
2019-01-14T09:04:41.575Z,96033.73
2019-01-14T09:07:48.742Z,96037.48
2019-01-14T09:10:57.495Z,96021.91
2019-01-14T09:14:04.402Z,96029.42
2019-01-14T09:17:11.351Z,96033.14
2019-01-14T09:20:20.993Z,96031.95
2019-01-14T09:23:27.941Z,96029.39
2019-01-14T09:26:34.852Z,96045.73
2019-01-14T09:29:41.810Z,96048.67
2019-01-14T09:32:48.910Z,96047.77
2019-01-14T09:35:57.574Z,96053.14
2019-01-14T09:39:07.315Z,96054.89
2019-01-14T09:42:15.371Z,96061.48
2019-01-14T09:45:22.291Z,96068.54
2019-01-14T09:48:29.919Z,96072.30
2019-01-14T09:51:37.901Z,96081.55
2019-01-14T09:54:44.859Z,96080.48
2019-01-14T09:57:51.978Z,96071.23
2019-01-14T10:00:58.935Z,96069.48
2019-01-14T10:04:05.844Z,96070.06
2019-01-14T10:07:12.791Z,96068.77
2019-01-14T10:10:20.958Z,96071.64
2019-01-14T10:13:27.890Z,96070.64
2019-01-14T10:16:34.978Z,96065.14
2019-01-14T10:19:42.118Z,96062.39
2019-01-14T10:22:49.028Z,96062.00
2019-01-14T10:25:56.871Z,96057.08
2019-01-14T10:29:07.192Z,96066.78
2019-01-14T10:32:14.224Z,96101.24
2019-01-14T10:35:21.121Z,96102.30
2019-01-14T10:38:28.818Z,96094.48
2019-01-14T10:41:35.803Z,96106.23
2019-01-14T10:44:42.775Z,96095.16
2019-01-14T10:47:49.794Z,96088.25
2019-01-14T10:50:56.949Z,96090.73
2019-01-14T10:54:03.885Z,96092.37
2019-01-14T10:57:12.053Z,96092.73
2019-01-14T11:00:22.393Z,96092.05
2019-01-14T11:03:29.481Z,96099.61
2019-01-14T11:06:36.403Z,96096.46
2019-01-14T11:09:44.658Z,96100.42
2019-01-14T11:12:52.083Z,96101.08
2019-01-14T11:15:59.147Z,96103.94
2019-01-14T11:19:06.807Z,96107.69
2019-01-14T11:22:13.917Z,96110.32
2019-01-14T11:25:21.659Z,96105.36
2019-01-14T11:28:28.870Z,96102.97
2019-01-14T11:31:35.807Z,96110.42
2019-01-14T11:34:44.972Z,96119.70
2019-01-14T11:37:51.884Z,96118.94
2019-01-14T11:40:59.121Z,96121.80
2019-01-14T11:44:06.092Z,96136.69
2019-01-14T11:47:13.196Z,96125.66
2019-01-14T11:50:20.119Z,96123.44
2019-01-14T11:53:27.141Z,96129.54
2019-01-14T11:56:34.360Z,96135.64
2019-01-14T11:59:41.668Z,96141.70
2019-01-14T12:02:48.685Z,96151.06
2019-01-14T12:05:57.653Z,96153.77
2019-01-14T12:09:12.168Z,96157.17
2019-01-14T12:12:14.793Z,96156.16
2019-01-14T12:15:29.039Z,96156.47
2019-01-14T12:18:36.008Z,96157.66
2019-01-14T12:21:42.949Z,96164.81
2019-01-14T12:24:50.098Z,96165.11
2019-01-14T12:27:57.115Z,96161.15
2019-01-14T12:31:04.121Z,96161.65
2019-01-14T12:34:11.037Z,96164.03
2019-01-14T12:37:18.001Z,96168.69
2019-01-14T12:40:25.349Z,96161.48
2019-01-14T12:43:33.607Z,96167.37
2019-01-14T12:46:43.495Z,96164.36
2019-01-14T12:49:50.439Z,96168.66
2019-01-14T12:52:57.429Z,96172.42
2019-01-14T12:56:04.385Z,96170.31
2019-01-14T12:59:11.292Z,96165.69
2019-01-14T13:02:18.255Z,96165.27
2019-01-14T13:05:25.851Z,96170.23
2019-01-14T13:08:32.870Z,96171.64
2019-01-14T13:11:39.833Z,96178.03
2019-01-14T13:14:46.766Z,96178.15
2019-01-14T13:17:58.045Z,96179.60
2019-01-14T13:21:05.223Z,96183.84
2019-01-14T13:24:12.234Z,96176.77
2019-01-14T13:27:19.277Z,96178.72
2019-01-14T13:30:29.298Z,96185.72
2019-01-14T13:33:36.247Z,96182.22
2019-01-14T13:36:43.204Z,96186.34
2019-01-14T13:39:53.220Z,96196.55
2019-01-14T13:43:00.836Z,96191.87
2019-01-14T13:46:08.292Z,96194.59
2019-01-14T13:49:15.229Z,96205.00
2019-01-14T13:52:23.523Z,96201.14
2019-01-14T13:55:30.515Z,96202.71
2019-01-14T13:58:37.464Z,96202.63
2019-01-14T14:01:44.406Z,96205.69
2019-01-14T14:04:51.616Z,96219.42
2019-01-14T14:07:58.606Z,96219.39
2019-01-14T14:11:05.555Z,96218.86
2019-01-14T14:14:12.585Z,96215.05
2019-01-14T14:17:19.533Z,96219.76
2019-01-14T14:20:26.602Z,96227.75
2019-01-14T14:23:33.620Z,96229.91
2019-01-14T14:26:40.540Z,96234.06
2019-01-14T14:29:48.777Z,96231.17
2019-01-14T14:32:55.706Z,96233.27
2019-01-14T14:36:02.765Z,96244.25
2019-01-14T14:39:11.024Z,96245.00
2019-01-14T14:42:18.075Z,96263.94
2019-01-14T14:45:24.987Z,96276.53
2019-01-14T14:48:32.212Z,96262.53
2019-01-14T14:51:39.297Z,96264.19
2019-01-14T14:54:46.375Z,96269.27
2019-01-14T14:57:53.293Z,96269.34
2019-01-14T15:01:02.728Z,96278.98
2019-01-14T15:04:09.714Z,96294.64
2019-01-14T15:07:18.298Z,96303.33
2019-01-14T15:10:25.314Z,96301.72
2019-01-14T15:13:32.286Z,96296.91
2019-01-14T15:16:39.274Z,96318.00
2019-01-14T15:19:46.241Z,96314.15
2019-01-14T15:22:53.160Z,96315.80
2019-01-14T15:26:01.597Z,96316.77
2019-01-14T15:29:09.909Z,96322.13
2019-01-14T15:32:17.918Z,96409.56
2019-01-14T15:35:24.963Z,96430.46
2019-01-14T15:38:33.030Z,96436.38
2019-01-14T15:41:39.983Z,96431.34
2019-01-14T15:44:46.947Z,96438.16
2019-01-14T15:47:53.861Z,96450.25
2019-01-14T15:51:01.180Z,96458.27
2019-01-14T15:54:08.131Z,96464.14
2019-01-14T15:57:15.089Z,96475.44
2019-01-14T16:00:22.231Z,96472.03
2019-01-14T16:03:30.301Z,96472.37
2019-01-14T16:06:37.238Z,96471.50
2019-01-14T16:09:47.384Z,96491.95
2019-01-14T16:12:54.316Z,96482.63
2019-01-14T16:16:01.277Z,96508.02
2019-01-14T16:19:08.214Z,96512.38
2019-01-14T16:22:15.187Z,96515.23
2019-01-14T16:25:22.240Z,96521.92
2019-01-14T16:28:29.203Z,96522.87
2019-01-14T16:31:36.131Z,96528.80
2019-01-14T16:34:45.289Z,96525.87
2019-01-14T16:37:52.483Z,96535.83
2019-01-14T16:40:59.676Z,96539.16
2019-01-14T16:44:06.690Z,96544.91
2019-01-14T16:47:13.826Z,96548.64
2019-01-14T16:50:20.950Z,96563.34
2019-01-14T16:53:28.226Z,96568.27
2019-01-14T16:56:36.878Z,96576.28
2019-01-14T16:59:44.320Z,96582.55
2019-01-14T17:02:51.419Z,96577.04
2019-01-14T17:17:02.030Z,96607.95
2019-01-14T17:20:14.455Z,96616.65
2019-01-14T17:23:21.828Z,96613.31
2019-01-14T17:26:29.127Z,96622.56
2019-01-14T17:29:38.496Z,96625.06
2019-01-14T17:32:45.538Z,96636.94
2019-01-14T17:35:52.688Z,96650.34
2019-01-14T17:38:59.722Z,96664.09
2019-01-14T17:42:06.770Z,96669.57
2019-01-14T17:45:15.453Z,96662.45
2019-01-14T17:48:22.479Z,96677.55
2019-01-14T17:51:29.560Z,96682.21
2019-01-14T17:54:36.947Z,96693.50
2019-01-14T17:57:43.950Z,96695.11
2019-01-14T18:00:51.097Z,96701.46
2019-01-14T18:03:58.103Z,96709.02
2019-01-14T18:07:05.474Z,96711.10
2019-01-14T18:10:14.949Z,96713.66
2019-01-14T18:13:22.170Z,96716.59
2019-01-14T18:16:29.261Z,96724.53
2019-01-14T18:19:36.394Z,96729.22
2019-01-14T18:22:44.757Z,96737.20
2019-01-14T18:25:51.844Z,96737.13
2019-01-14T18:28:58.963Z,96736.77
2019-01-14T18:32:06.630Z,96744.69
2019-01-14T18:35:13.868Z,96747.63
2019-01-14T18:38:20.850Z,96754.72
2019-01-14T18:41:30.328Z,96750.16
2019-01-14T18:44:37.497Z,96754.33
2019-01-14T18:47:44.534Z,96767.73
2019-01-14T18:50:51.692Z,96782.88
2019-01-14T18:53:58.717Z,96783.70
2019-01-14T18:57:07.636Z,96781.17
2019-01-14T19:00:22.314Z,96782.42
2019-01-14T19:03:29.699Z,96794.63
2019-01-14T19:06:36.687Z,96798.40
2019-01-14T19:09:44.048Z,96808.45
2019-01-14T19:12:51.200Z,96806.34
2019-01-14T19:15:58.147Z,96813.09
2019-01-14T19:19:06.889Z,96809.72
2019-01-14T19:22:18.112Z,96814.34
2019-01-14T19:25:35.489Z,96818.97
2019-01-14T19:28:44.683Z,96828.19
2019-01-14T19:32:07.059Z,96829.44
2019-01-14T19:35:17.065Z,96836.98
2019-01-14T19:38:29.710Z,96843.27
2019-01-14T19:41:38.417Z,96852.08
2019-01-14T19:44:47.064Z,96852.48
2019-01-14T19:47:54.140Z,96851.22
2019-01-14T19:51:01.398Z,96852.88
2019-01-14T19:54:08.569Z,96860.48
2019-01-14T19:57:16.778Z,96864.20
2019-01-14T20:00:31.718Z,96870.09
2019-01-14T20:03:38.802Z,96875.13
2019-01-14T20:06:45.856Z,96880.16
2019-01-14T20:09:52.888Z,96883.94
2019-01-14T20:12:59.923Z,96891.89
2019-01-14T20:16:07.071Z,96892.73
2019-01-14T20:19:14.205Z,96897.36
2019-01-14T20:22:21.577Z,96907.43
2019-01-14T20:25:28.879Z,96907.42
2019-01-14T20:28:35.979Z,96906.56
2019-01-14T20:31:43.216Z,96912.86
2019-01-14T20:34:54.084Z,96919.16
2019-01-14T20:38:06.019Z,96919.59
2019-01-14T20:41:17.530Z,96923.36
2019-01-14T20:44:27.284Z,96924.17
2019-01-14T20:47:36.116Z,96929.66
2019-01-14T20:50:46.799Z,96928.39
2019-01-14T20:53:55.870Z,96927.14
2019-01-14T20:57:04.706Z,96928.39
2019-01-14T21:00:20.441Z,96924.16
2019-01-14T21:03:27.503Z,96928.38
2019-01-14T21:06:34.603Z,96932.58
2019-01-14T21:09:41.570Z,96931.31
2019-01-14T21:12:48.575Z,96937.20
2019-01-14T21:16:02.583Z,96936.75
2019-01-14T21:19:05.141Z,96934.69
2019-01-14T21:22:12.124Z,96937.59
2019-01-14T21:25:19.247Z,96940.13
2019-01-14T21:28:26.368Z,96941.80
2019-01-14T21:31:33.309Z,96941.81
2019-01-14T21:34:40.407Z,96935.95
2019-01-14T21:37:47.536Z,96936.36
2019-01-14T21:40:54.619Z,96940.14
2019-01-14T21:44:01.640Z,96937.19
2019-01-14T21:47:08.735Z,96940.97
2019-01-14T21:50:18.140Z,96945.99
2019-01-14T21:53:25.198Z,96940.55
2019-01-14T21:56:32.150Z,96950.22
2019-01-14T21:59:39.191Z,96953.98
2019-01-14T22:02:47.582Z,96950.20
2019-01-14T22:05:54.685Z,96951.47
2019-01-14T22:09:01.703Z,96955.65
2019-01-14T22:12:10.025Z,96953.98
2019-01-14T22:15:17.713Z,96954.80
2019-01-14T22:18:24.752Z,96954.39
2019-01-14T22:21:31.674Z,96948.09
2019-01-14T22:24:43.025Z,96949.77
2019-01-14T22:27:50.282Z,96948.95
2019-01-14T22:30:57.293Z,96945.59
2019-01-14T22:34:04.337Z,96930.49
2019-01-14T22:37:11.462Z,96945.98
2019-01-14T22:40:18.558Z,96952.31
2019-01-14T22:43:26.953Z,96951.03
2019-01-14T22:46:34.010Z,96947.25
2019-01-14T22:49:41.065Z,96943.08
2019-01-14T22:52:48.121Z,96951.02
2019-01-14T22:55:55.119Z,96950.63
2019-01-14T22:59:02.084Z,96952.29
2019-01-14T23:02:09.789Z,96957.32
2019-01-14T23:05:17.070Z,96956.50
2019-01-14T23:08:24.139Z,96957.32
2019-01-14T23:11:31.201Z,96956.51
2019-01-14T23:14:38.276Z,96957.33
2019-01-14T23:17:45.269Z,96951.88
2019-01-14T23:20:52.537Z,96956.92
2019-01-14T23:23:59.487Z,96964.47
2019-01-14T23:27:06.502Z,96966.58
2019-01-14T23:30:13.468Z,96954.41
2019-01-14T23:33:20.405Z,96952.73
2019-01-14T23:36:27.331Z,96953.55
2019-01-14T23:39:34.414Z,96956.06
2019-01-14T23:42:41.411Z,96964.47
2019-01-14T23:45:48.804Z,96960.70
2019-01-14T23:48:55.790Z,96970.77
2019-01-14T23:52:02.868Z,96969.91
2019-01-14T23:55:09.846Z,96969.50
2019-01-14T23:58:16.892Z,96974.95
